Login

xmel33
1 activity; - Last training unit 01/11/2017
01/11/2017 Show to everybody Allenamento 67 sanco 46.58 593 03:12:40 14.51 Km\h
29/10/2017 Show to everybody Allenamento 66 Valcava bis 46.94 1704 03:37:00 12.98 Km\h
17/10/2017 Show to everybody Allenamento 65 sanco 34.71 560 02:23:28 14.51 Km\h SPECIALIZED EPIC
12/10/2017 Show to everybody Allenamento 64 49.61 233 02:05:37 23.7 Km\h
07/10/2017 Show to everybody Allenamento 63 Monte chiappo fabbrica curone 43.16 1938 04:43:42 9.13 Km\h SPECIALIZED EPIC
04/10/2017 Show to everybody Allenamento 62 18.37 212 00:43:23 25.41 Km\h SPECIALIZED EPIC
04/10/2017 Show to everybody Allenamento 61 18.14 163 00:47:00 23.16 Km\h SPECIALIZED EPIC
02/10/2017 Show to everybody Allenamento 60 46.36 259 01:56:44 23.83 Km\h
29/09/2017 Show to everybody Allenamento 59 37.71 250 01:30:07 25.11 Km\h
23/09/2017 Show to everybody Allenamento 58 Ovada 41.86 1270 04:15:43 9.82 Km\h
21/09/2017 Show to everybody Allenamento 57 37.86 218 01:29:03 25.51 Km\h
17/09/2017 Show to everybody Allenamento 56 rive rosse 55.01 1622 05:33:21 9.9 Km\h
15/09/2017 Show to everybody Allenamento 55 37.91 285 01:31:11 24.95 Km\h
09/09/2017 Show to everybody Allenamento 54 Castel arqauto-monte croce 61.74 1776 05:37:13 10.99 Km\h SPECIALIZED EPIC
06/09/2017 Show to everybody Allenamento 53 37.8 252 01:33:38 24.22 Km\h
03/09/2017 Show to everybody Allenamento 52 giro sardo 62.69 1272 03:53:14 16.13 Km\h
22/08/2017 Show to everybody Allenamento 51 Massa Marittima 36.09 730 02:24:24 14.99 Km\h SCOTT SPARK 910
17/08/2017 Show to everybody Allenamento 50 permici tremalzo 68.34 3553 07:08:47 9.56 Km\h
15/08/2017 Show to everybody Allenamento 49 altssimo 88.76 3167 07:06:37 12.48 Km\h
13/08/2017 Show to everybody Allenamento 48 tremalzo 80.78 3160 07:10:39 11.25 Km\h
10/08/2017 Show to everybody Allenamento 47 37.89 194 01:25:35 26.56 Km\h
08/08/2017 Show to everybody Allenamento 46 pizzocco da san michele 26.93 1302 03:13:44 8.34 Km\h SPECIALIZED EPIC
03/08/2017 Show to everybody Allenamento 45 giro sopra Iseo 43.82 1624 04:05:00 10.73 Km\h
02/08/2017 Show to everybody Allenamento 44 Adda sgambata 27.04 177 01:32:48 17.48 Km\h SPECIALIZED EPIC
01/08/2017 Show to everybody Allenamento 43 Valcava 48.12 1749 03:53:21 12.37 Km\h
29/07/2017 Show to everybody Allenamento 42 Giro val Imagna 61.83 1811 05:15:04 11.78 Km\h
23/07/2017 Show to everybody Allenamento 41 Adda 58.46 260 02:44:17 21.35 Km\h ROCKRIDER RR
15/07/2017 Show to everybody Allenamento 40 canto 25.09 1205 02:36:55 9.59 Km\h
08/07/2017 Show to everybody Allenamento 39 grigna bassa 39.7 1971 03:52:36 10.24 Km\h
02/07/2017 Show to everybody Allenament0 38 giro artavaggio 48.63 2456 04:32:08 10.72 Km\h
24/06/2017 Show to everybody Allenamento 37 Pasubio 45.61 2423 05:05:49 8.95 Km\h
22/06/2017 Show to everybody Allenamento 36 33.92 193 01:15:45 26.87 Km\h
18/06/2017 Show to everybody Allenamento 35 centosassi 46.75 1427 03:36:49 12.94 Km\h SPECIALIZED EPIC
12/06/2017 Show to everybody Allenamento 34 notturna sancolombano 32.16 283 02:13:31 14.45 Km\h SPECIALIZED EPIC
11/06/2017 Show to everybody Allenamento 33 81.5 378 03:54:02 20.89 Km\h
09/06/2017 Show to everybody Allenamento 32 20.09 191 00:55:15 21.82 Km\h
09/06/2017 Show to everybody Allenamento 32 bis 16.48 167 00:41:27 23.85 Km\h
04/06/2017 Show to everybody Allenamento 31 57.8 337 02:23:03 24.24 Km\h ROCKRIDER RR
31/05/2017 Show to everybody Allenamento 30 32.97 235 01:18:06 25.33 Km\h ROCKRIDER RR
27/05/2017 Show to everybody Allenamento 29 36.33 193 01:35:32 22.82 Km\h ROCKRIDER RR
21/05/2017 Show to everybody Allenamento 28 corno della paura 44.84 1766 04:28:24 10.02 Km\h SPECIALIZED EPIC
17/05/2017 Show to everybody Allenamento 27 Adda 31.47 225 01:19:54 23.63 Km\h SPECIALIZED EPIC
14/05/2017 Show to everybody Allenamento 26 san colombano 60.62 394 03:17:19 18.43 Km\h SPECIALIZED EPIC
10/05/2017 Show to everybody Allenamento 25 37.64 206 01:28:04 25.64 Km\h SPECIALIZED EPIC
05/05/2017 Show to everybody Allenamento 24 37.58 197 01:24:32 26.67 Km\h SPECIALIZED EPIC
29/04/2017 Show to everybody Allenamento 23 Sanco 43.4 512 03:20:56 12.96 Km\h SPECIALIZED EPIC
22/04/2017 Show to everybody Allenamento 22 Tour lago d idro 61.49 2438 08:02:19 7.65 Km\h SPECIALIZED EPIC
17/04/2017 Show to everybody Allenamento n. 21 37.78 231 01:40:28 22.56 Km\h SPECIALIZED EPIC
11/04/2017 Show to everybody Allenamento n. 20 Adda 30.51 193 01:38:39 18.56 Km\h SPECIALIZED EPIC
09/04/2017 Show to everybody Allenamento n. 19 Adda Rivolta 60.55 259 02:42:09 22.41 Km\h SPECIALIZED EPIC
01/04/2017 Show to everybody Allenamento n. 18 Ferrire 58.96 2002 07:08:14 8.26 Km\h SPECIALIZED EPIC
28/03/2017 Show to everybody Allenamento n. 17 Adda Spino 31.95 195 01:19:41 24.06 Km\h SPECIALIZED EPIC
25/03/2017 Show to everybody Allenamento n. 16 Toscolano- spino-cartiere 33.77 1489 04:41:17 7.2 Km\h SPECIALIZED EPIC
20/03/2017 Show to everybody Allenamento n. 15 San colombano serale 29.35 118 01:41:35 17.33 Km\h SPECIALIZED EPIC
18/03/2017 Show to everybody Allenamento n. 14 Castel Arqauto monte croce CORRETTO 56.19 1455 04:48:19 11.69 Km\h SPECIALIZED EPIC
12/03/2017 Show to everybody Allenamento n. 13 Adda Spinio 37.25 72 01:43:32 21.59 Km\h SPECIALIZED EPIC
11/03/2017 Show to everybody Allenamento12 Rive Rosse 49.77 1525 05:36:46 8.87 Km\h SPECIALIZED EPIC
08/03/2017 Show to everybody Allenamento n. 11 ciclabile 38.13 76 01:38:33 23.22 Km\h SPECIALIZED EPIC
05/03/2017 Show to everybody Allenamento n. 10 ciclabile 37.41 79 01:34:18 23.81 Km\h SPECIALIZED EPIC
26/02/2017 Show to everybody Allenamento 9 Adda Spino 32.7 44 01:36:04 20.42 Km\h SPECIALIZED EPIC
25/02/2017 Show to everybody Allenamento 8 San colombano 26.06 182 02:09:05 12.11 Km\h SPECIALIZED EPIC
19/02/2017 Show to everybody Vesio Fobie Note 30.85 1820 03:41:31 8.36 Km\h SPECIALIZED EPIC
18/02/2017 Show to everybody monte pillerone - vertical + gianhansel 27.19 977 02:44:47 9.9 Km\h SPECIALIZED EPIC
11/02/2017 Show to everybody Allenamento 5 37.57 205 01:36:11 23.43 Km\h SPECIALIZED EPIC
21/01/2017 Show to everybody giretto san colombano 41.35 422 02:41:28 15.37 Km\h SPECIALIZED EPIC
15/01/2017 Show to everybody allenamento 3 33.93 234 01:22:46 24.6 Km\h SPECIALIZED EPIC
08/01/2017 Show to everybody allenamento 2 34.78 209 01:44:44 19.92 Km\h SPECIALIZED EPIC
06/01/2017 Show to everybody grigna alta 38.78 2003 03:58:58 9.74 Km\h SPECIALIZED EPIC
11/09/2016 Show to everybody 1 73.56 711 04:14:45 17.33 Km\h SPECIALIZED EPIC
11/09/2016 Show to everybody 2 31.92 11 00:29:53 64.1 Km\h SPECIALIZED EPIC
25/06/2016 Show to everybody Monte baldo 64.31 2094 05:53:17 10.92 Km\h SPECIALIZED EPIC
01/01/1970 Show to everybody traccia_2017-02-19 134049 0 0 0 Km\h SPECIALIZED EPIC
01/01/1970 Show to everybody Vesio Fobie Note 0 0 0 Km\h SPECIALIZED EPIC
01/01/1970 Show to everybody Allenamento n. 4 0 0 0 Km\h
01/01/1970 Show to everybody Allenamento n. 6 0 0 0 Km\h SPECIALIZED EPIC
01/01/1970 Show to everybody Allenamento 12 Rive Rosse 0 0 0 Km\h SPECIALIZED EPIC
01/01/1970 Show to everybody Allenamento n. 14 Castel Arqauto monte croce 0 0 0 Km\h SPECIALIZED EPIC
01/01/1970 Show to everybody Allenamento n. 10 0 0 0 Km\h
01/01/1970 Show to everybody Allenamento n. 21 0 0 0 Km\h SPECIALIZED EPIC
Training units 0
Kilometers 0 Km
Vertical gain 0 mt
Hours of riding 00:00:00
Average speed 0 Km/h
average HR 129
Points 237
Live Tracking »

SPECIALIZED EPIC 116:40:06 1600.64 Km
ROCKRIDER RR 08:00:58 185.56 Km
SCOTT SPARK 910 02:24:24 36.09 Km

 
If you stop following this users you will not be able to compare your trainings with his

Now you follow this users and you can compare your trainings


MTB-Forum.it | 2012-2019 Training Camp v.1.6 rev 05